Time;durP1;ratioP1;P1;durP2;ratioP2;P2;SDS_P1;SDS_P2;PMS_P1;PMS_P2;Temp;Humidity;BMP_temperature;BMP_pressure;BME280_temperature;BME280_humidity;BME280_pressure;Samples;Min_cycle;Max_cycle;Signal;HPM_P1;HPM_P2
2023/11/13 00:02:04;;;;;;;3.80;1.80;;;;;;;9.71;65.61;100378.73;108139;1280;22023;-65
2023/11/13 00:04:29;;;;;;;4.00;1.90;;;;;;;9.77;65.58;100377.27;108122;1284;21984;-64
2023/11/13 00:06:55;;;;;;;3.00;1.70;;;;;;;9.81;65.65;100374.95;107981;1287;21985;-64
2023/11/13 00:09:21;;;;;;;2.80;1.40;;;;;;;9.89;65.66;100375.77;108144;1280;21987;-64
2023/11/13 00:11:47;;;;;;;2.80;1.60;;;;;;;9.92;65.91;100377.30;108088;1287;22452;-64
2023/11/13 00:14:13;;;;;;;4.40;1.80;;;;;;;9.96;65.95;100379.55;108129;1287;21995;-64
2023/11/13 00:16:39;;;;;;;4.40;1.80;;;;;;;10.00;65.92;100381.08;108119;1281;21986;-64
2023/11/13 00:19:05;;;;;;;2.90;1.80;;;;;;;10.06;66.00;100379.98;108106;1277;21993;-65
2023/11/13 00:21:30;;;;;;;3.80;1.60;;;;;;;10.06;65.71;100384.89;108109;1284;21991;-64
2023/11/13 00:23:59;;;;;;;4.40;2.10;;;;;;;10.02;65.21;100385.09;108028;1280;21983;-65
2023/11/13 00:26:25;;;;;;;2.90;1.70;;;;;;;10.00;65.33;100387.40;108180;1274;21984;-64
2023/11/13 00:28:51;;;;;;;3.40;1.80;;;;;;;10.01;65.29;100386.86;108193;1287;22115;-65
2023/11/13 00:31:17;;;;;;;3.60;1.90;;;;;;;10.03;65.01;100386.31;108175;1287;23306;-65
2023/11/13 00:33:43;;;;;;;2.30;1.20;;;;;;;10.02;65.21;100388.61;108202;1284;21985;-64
2023/11/13 00:36:08;;;;;;;2.40;1.30;;;;;;;10.00;65.39;100384.95;108162;1287;22060;-64
2023/11/13 00:38:34;;;;;;;3.40;1.50;;;;;;;9.98;65.33;100384.07;107978;1284;22034;-64
2023/11/13 00:40:59;;;;;;;2.40;1.30;;;;;;;10.00;65.44;100386.70;108195;1287;21983;-64
2023/11/13 00:43:25;;;;;;;2.50;1.50;;;;;;;10.02;65.34;100388.41;108014;1283;22008;-63
2023/11/13 00:45:51;;;;;;;2.60;1.60;;;;;;;10.05;65.44;100386.65;108061;1283;21995;-65
2023/11/13 00:48:17;;;;;;;3.80;1.40;;;;;;;10.06;65.61;100385.41;108096;1277;21994;-64
2023/11/13 00:50:43;;;;;;;2.70;1.50;;;;;;;10.08;65.59;100385.91;108087;1283;21991;-65
2023/11/13 00:53:10;;;;;;;3.90;1.50;;;;;;;10.07;65.67;100386.11;108140;1281;21985;-64
2023/11/13 00:55:36;;;;;;;1.90;1.20;;;;;;;10.05;65.66;100386.11;108080;1287;21989;-64
2023/11/13 00:58:02;;;;;;;2.70;1.50;;;;;;;10.05;65.95;100383.13;108210;1284;21982;-64
2023/11/13 01:00:28;;;;;;;2.20;1.20;;;;;;;10.08;66.11;100385.73;108103;1287;22086;-65
2023/11/13 01:02:54;;;;;;;3.10;1.40;;;;;;;10.10;65.85;100388.70;108103;1278;21987;-65
2023/11/13 01:05:20;;;;;;;3.40;1.30;;;;;;;10.10;65.68;100389.40;108170;1287;21999;-65
2023/11/13 01:07:45;;;;;;;2.90;1.30;;;;;;;10.10;65.58;100392.03;107999;1286;22116;-65
2023/11/13 01:10:11;;;;;;;2.50;1.40;;;;;;;10.08;65.37;100397.84;108153;1280;21987;-64
2023/11/13 01:12:37;;;;;;;2.40;1.10;;;;;;;10.05;65.56;100399.09;108290;1287;21995;-65
2023/11/13 01:15:06;;;;;;;2.50;1.50;;;;;;;10.02;65.48;100403.34;108035;1287;21992;-65
2023/11/13 01:17:33;;;;;;;3.70;1.60;;;;;;;9.98;65.51;100402.48;108156;1277;21998;-65
2023/11/13 01:19:58;;;;;;;2.20;1.40;;;;;;;9.99;65.62;100397.73;107962;1280;22027;-65
2023/11/13 01:22:24;;;;;;;2.70;1.60;;;;;;;10.02;65.76;100397.52;108205;1283;21993;-64
2023/11/13 01:24:50;;;;;;;2.90;1.50;;;;;;;10.07;65.89;100400.30;108131;1275;21993;-64
2023/11/13 01:27:16;;;;;;;2.70;1.40;;;;;;;10.10;65.72;100401.85;107979;1276;21977;-65
2023/11/13 01:29:41;;;;;;;3.10;1.50;;;;;;;10.10;65.72;100403.61;108178;1287;21993;-65
2023/11/13 01:32:07;;;;;;;2.90;1.60;;;;;;;10.10;65.65;100406.05;107953;1278;21991;-64
2023/11/13 01:34:33;;;;;;;3.00;1.60;;;;;;;10.11;65.68;100406.73;107942;1275;22004;-65
2023/11/13 01:36:58;;;;;;;4.00;2.30;;;;;;;10.13;65.56;100411.11;108137;1281;22099;-65
2023/11/13 01:39:24;;;;;;;5.60;2.20;;;;;;;10.15;65.65;100412.14;108233;1287;21987;-65
2023/11/13 01:41:50;;;;;;;4.60;2.30;;;;;;;10.18;65.59;100410.89;108074;1283;22006;-66
2023/11/13 01:44:20;;;;;;;5.40;2.50;;;;;;;10.19;65.62;100412.27;108076;1287;22004;-65
2023/11/13 01:46:46;;;;;;;5.60;2.30;;;;;;;10.19;65.44;100416.65;108077;1283;21990;-64
2023/11/13 01:49:11;;;;;;;4.60;2.40;;;;;;;10.17;65.14;100420.70;107740;1289;22004;-65
2023/11/13 01:51:37;;;;;;;7.00;2.60;;;;;;;10.15;65.24;100423.37;108086;1287;22032;-64
2023/11/13 01:54:03;;;;;;;5.30;2.50;;;;;;;10.09;65.15;100428.50;108147;1287;21986;-65
2023/11/13 01:56:29;;;;;;;7.50;3.70;;;;;;;10.02;65.18;100428.92;108029;1287;21988;-65
2023/11/13 01:58:55;;;;;;;10.70;5.50;;;;;;;9.98;65.09;100432.98;107776;1288;21998;-64
2023/11/13 02:01:21;;;;;;;17.10;8.00;;;;;;;9.96;65.20;100435.63;108149;1287;22027;-64
2023/11/13 02:03:48;;;;;;;12.50;7.40;;;;;;;9.94;65.13;100440.04;107830;1288;23760;-64
2023/11/13 02:06:17;;;;;;;11.20;5.60;;;;;;;9.92;65.07;100444.09;108166;1277;21993;-65
2023/11/13 02:08:43;;;;;;;10.80;5.60;;;;;;;9.89;65.11;100446.21;107903;1287;24092;-65
2023/11/13 02:11:09;;;;;;;9.70;4.60;;;;;;;9.88;65.11;100451.14;107945;1284;21987;-65
2023/11/13 02:13:35;;;;;;;7.90;4.30;;;;;;;9.89;65.25;100453.92;108151;1277;21987;-65
2023/11/13 02:16:00;;;;;;;8.20;3.60;;;;;;;9.91;64.93;100457.94;107931;1283;21996;-66
2023/11/13 02:18:26;;;;;;;9.70;4.20;;;;;;;9.90;64.40;100458.83;108112;1287;21992;-66
2023/11/13 02:20:51;;;;;;;11.30;4.30;;;;;;;9.84;64.21;100462.90;108117;1288;24189;-64
2023/11/13 02:23:17;;;;;;;9.90;4.30;;;;;;;9.77;64.15;100472.77;108040;1288;21995;-65
2023/11/13 02:26:10;;;;;;;7.40;3.50;;;;;;;9.69;64.03;100476.33;108021;1286;21985;-65
2023/11/13 02:28:35;;;;;;;7.70;3.40;;;;;;;9.59;64.11;100483.22;107998;1284;21986;-66
2023/11/13 02:31:01;;;;;;;4.40;2.50;;;;;;;9.51;63.98;100485.20;108127;1287;21984;-65
2023/11/13 02:33:27;;;;;;;3.30;1.90;;;;;;;9.44;64.01;100485.96;107940;1287;21989;-64
2023/11/13 02:35:52;;;;;;;3.60;1.90;;;;;;;9.38;63.96;100490.19;108217;1284;21998;-64
2023/11/13 02:38:18;;;;;;;3.00;1.90;;;;;;;9.35;64.28;100492.48;108086;1287;22023;-64
2023/11/13 02:40:43;;;;;;;3.50;1.50;;;;;;;9.32;64.46;100494.06;108128;1275;22004;-65
2023/11/13 02:43:09;;;;;;;3.30;1.60;;;;;;;9.30;64.52;100494.27;108175;1287;24358;-65
2023/11/13 02:45:34;;;;;;;5.10;1.70;;;;;;;9.30;65.17;100500.04;108148;1287;21988;-64
2023/11/13 02:48:00;;;;;;;3.00;1.80;;;;;;;9.31;65.24;100499.50;107806;1288;22026;-65
2023/11/13 02:50:26;;;;;;;3.30;1.70;;;;;;;9.34;65.61;100502.82;108068;1288;22002;-65
2023/11/13 02:52:51;;;;;;;2.90;1.70;;;;;;;9.38;65.66;100500.16;108077;1284;21987;-64
2023/11/13 02:55:17;;;;;;;4.20;2.10;;;;;;;9.44;65.87;100505.40;108047;1288;21991;-64
2023/11/13 02:57:42;;;;;;;4.80;1.80;;;;;;;9.49;66.21;100505.19;108038;1288;21980;-64
2023/11/13 03:00:10;;;;;;;3.90;2.20;;;;;;;9.56;66.47;100509.00;108099;1288;21988;-65
2023/11/13 03:02:36;;;;;;;4.00;2.00;;;;;;;9.63;66.52;100512.29;108177;1288;21983;-65
2023/11/13 03:05:02;;;;;;;3.70;1.90;;;;;;;9.69;66.28;100514.35;108074;1288;21992;-65
2023/11/13 03:07:28;;;;;;;3.00;2.00;;;;;;;9.76;66.17;100519.21;108185;1277;21984;-64
2023/11/13 03:09:56;;;;;;;3.60;2.00;;;;;;;9.82;66.44;100519.87;106604;1277;1003010;-63
2023/11/13 03:12:22;;;;;;;5.00;1.80;;;;;;;9.87;66.22;100520.89;108106;1284;22003;-67
2023/11/13 03:14:49;;;;;;;4.10;2.10;;;;;;;9.91;66.26;100524.20;108131;1283;21984;-66
2023/11/13 03:17:16;;;;;;;4.40;2.10;;;;;;;9.92;66.10;100525.41;108151;1284;22026;-67
2023/11/13 03:19:42;;;;;;;3.80;1.90;;;;;;;9.94;66.07;100528.54;108222;1284;22003;-67
2023/11/13 03:22:08;;;;;;;6.40;2.30;;;;;;;9.95;65.97;100527.14;108169;1283;21993;-67
2023/11/13 03:24:34;;;;;;;4.50;2.00;;;;;;;9.96;66.20;100528.71;107385;1287;1002365;-66
2023/11/13 03:26:59;;;;;;;3.30;1.90;;;;;;;9.97;66.25;100529.58;108102;1276;21984;-64
2023/11/13 03:29:25;;;;;;;3.60;1.80;;;;;;;10.00;66.24;100532.72;108127;1287;21994;-65
2023/11/13 03:31:51;;;;;;;4.00;2.10;;;;;;;10.02;66.17;100534.80;107875;1287;21992;-67
2023/11/13 03:34:20;;;;;;;4.20;2.20;;;;;;;10.06;66.18;100542.85;108056;1284;21989;-67
2023/11/13 03:36:45;;;;;;;3.90;2.10;;;;;;;10.12;66.29;100547.02;108089;1287;21990;-65
2023/11/13 03:39:11;;;;;;;3.30;1.70;;;;;;;10.17;66.22;100550.64;108090;1287;22000;-66
2023/11/13 03:41:37;;;;;;;4.10;2.20;;;;;;;10.18;65.93;100559.39;108096;1287;22217;-65
2023/11/13 03:44:03;;;;;;;3.80;2.00;;;;;;;10.16;65.66;100564.34;108097;1287;22040;-66
2023/11/13 03:46:29;;;;;;;4.00;2.00;;;;;;;10.14;65.79;100565.93;108134;1287;21989;-67
2023/11/13 03:48:55;;;;;;;3.10;1.90;;;;;;;10.16;65.99;100567.14;108110;1281;21986;-67
2023/11/13 03:51:25;;;;;;;4.30;2.10;;;;;;;10.19;66.15;100571.32;108146;1287;21991;-64
2023/11/13 03:53:51;;;;;;;12.30;2.10;;;;;;;10.24;66.26;100571.46;107908;1284;21996;-64
2023/11/13 03:56:21;;;;;;;9.50;2.20;;;;;;;10.31;66.59;100568.78;108120;1287;21985;-66
2023/11/13 03:58:46;;;;;;;11.90;1.90;;;;;;;10.40;66.58;100568.90;108151;1276;21986;-65
2023/11/13 04:01:13;;;;;;;4.30;1.80;;;;;;;10.46;66.60;100573.95;107797;1288;21985;-65
2023/11/13 04:03:38;;;;;;;4.00;2.00;;;;;;;10.47;66.25;100572.89;107917;1286;21980;-65
2023/11/13 04:06:05;;;;;;;3.40;1.90;;;;;;;10.47;66.04;100573.59;108078;1284;23630;-64
2023/11/13 04:08:30;;;;;;;3.60;2.00;;;;;;;10.45;65.69;100577.12;108108;1287;21997;-67
2023/11/13 04:10:56;;;;;;;4.50;1.90;;;;;;;10.43;65.70;100580.45;108079;1287;22001;-66
2023/11/13 04:13:23;;;;;;;3.50;1.80;;;;;;;10.42;65.58;100580.30;108083;1275;21994;-67
2023/11/13 04:15:48;;;;;;;3.60;2.20;;;;;;;10.41;65.66;100576.09;108337;1283;21992;-65
2023/11/13 04:18:14;;;;;;;5.50;2.10;;;;;;;10.43;65.64;100576.78;108097;1287;21999;-67
2023/11/13 04:20:40;;;;;;;4.70;1.70;;;;;;;10.43;65.80;100575.73;108084;1283;21994;-66
2023/11/13 04:23:05;;;;;;;5.70;2.10;;;;;;;10.44;66.00;100577.46;106683;1287;1002494;-64
2023/11/13 04:25:32;;;;;;;5.90;1.90;;;;;;;10.47;66.14;100583.23;108046;1279;21981;-65
2023/11/13 04:27:57;;;;;;;7.10;2.40;;;;;;;10.48;65.83;100587.96;108248;1287;21987;-67
2023/11/13 04:30:23;;;;;;;6.20;1.90;;;;;;;10.46;65.56;100587.45;108144;1287;21987;-65
2023/11/13 04:32:49;;;;;;;5.40;1.90;;;;;;;10.43;65.33;100586.27;108124;1277;22011;-66
2023/11/13 04:35:14;;;;;;;12.20;2.70;;;;;;;10.39;65.16;100589.42;108051;1287;21986;-63
2023/11/13 04:37:40;;;;;;;11.90;2.00;;;;;;;10.38;65.56;100599.07;108027;1287;21990;-63
2023/11/13 04:40:07;;;;;;;10.70;2.10;;;;;;;10.37;65.47;100595.92;108044;1287;21989;-66
2023/11/13 04:42:33;;;;;;;6.20;1.90;;;;;;;10.36;65.31;100595.58;108042;1287;21987;-64
2023/11/13 04:44:58;;;;;;;10.80;2.10;;;;;;;10.33;65.07;100593.85;107951;1287;22029;-64
2023/11/13 04:47:24;;;;;;;9.30;2.00;;;;;;;10.27;64.97;100599.84;108092;1287;21991;-64
2023/11/13 04:49:50;;;;;;;5.80;1.90;;;;;;;10.20;64.76;100598.33;108114;1284;21998;-64
2023/11/13 04:52:15;;;;;;;5.10;1.80;;;;;;;10.12;64.73;100599.43;108111;1287;21989;-63
2023/11/13 04:54:41;;;;;;;3.90;1.50;;;;;;;10.07;64.65;100598.59;108141;1277;21995;-63
2023/11/13 04:57:06;;;;;;;3.90;1.80;;;;;;;10.01;64.30;100598.46;108134;1285;22468;-65
2023/11/13 04:59:32;;;;;;;3.30;1.70;;;;;;;9.95;64.02;100596.02;108149;1281;22046;-66
2023/11/13 05:01:57;;;;;;;3.80;1.40;;;;;;;9.90;63.95;100603.44;108122;1287;21987;-67
2023/11/13 05:04:26;;;;;;;10.70;1.80;;;;;;;9.85;64.19;100609.77;108167;1283;21989;-65
2023/11/13 05:06:52;;;;;;;5.70;1.80;;;;;;;9.83;64.44;100615.92;108166;1287;21985;-67
2023/11/13 05:09:18;;;;;;;4.50;1.60;;;;;;;9.77;64.07;100615.24;108201;1287;21996;-66
2023/11/13 05:11:44;;;;;;;3.10;1.60;;;;;;;9.68;63.93;100614.77;108154;1284;21964;-67
2023/11/13 05:14:10;;;;;;;11.20;2.30;;;;;;;9.63;64.05;100620.57;108156;1287;24254;-67
2023/11/13 05:16:35;;;;;;;10.20;2.00;;;;;;;9.67;65.02;100623.54;108189;1283;22026;-67
2023/11/13 05:19:03;;;;;;;7.20;1.70;;;;;;;9.72;64.99;100622.44;108246;1287;21966;-64
2023/11/13 05:21:29;;;;;;;11.50;2.10;;;;;;;9.74;64.84;100625.77;108149;1274;21990;-64
2023/11/13 05:23:55;;;;;;;4.40;1.70;;;;;;;9.75;65.04;100630.33;108111;1281;21987;-65
2023/11/13 05:26:21;;;;;;;5.40;1.70;;;;;;;9.78;65.12;100636.78;108120;1287;21996;-67
2023/11/13 05:28:47;;;;;;;3.80;2.10;;;;;;;9.80;65.09;100638.70;108138;1281;22005;-67
2023/11/13 05:31:14;;;;;;;3.30;1.90;;;;;;;9.84;65.23;100641.50;108134;1287;21991;-65
2023/11/13 05:33:39;;;;;;;3.20;1.60;;;;;;;9.86;65.35;100643.24;108135;1287;21993;-67
2023/11/13 05:36:06;;;;;;;3.70;1.60;;;;;;;9.88;65.49;100639.73;108199;1283;21994;-67
2023/11/13 05:38:31;;;;;;;3.50;1.90;;;;;;;9.91;65.59;100640.41;108176;1287;21997;-66
2023/11/13 05:40:57;;;;;;;3.30;1.50;;;;;;;9.96;65.65;100639.50;108195;1284;22003;-65
2023/11/13 05:43:23;;;;;;;3.40;1.80;;;;;;;10.04;65.77;100644.54;108077;1287;21991;-65
2023/11/13 05:45:49;;;;;;;3.10;1.60;;;;;;;10.14;65.90;100651.85;108140;1284;23657;-66
2023/11/13 05:48:16;;;;;;;3.40;1.90;;;;;;;10.24;66.14;100652.13;108213;1283;22457;-67
2023/11/13 05:50:41;;;;;;;3.90;1.80;;;;;;;10.34;66.48;100654.01;108166;1277;21990;-66
2023/11/13 05:53:07;;;;;;;3.50;1.60;;;;;;;10.45;66.41;100655.70;108184;1287;23612;-66
2023/11/13 05:55:36;;;;;;;3.30;1.80;;;;;;;10.55;66.52;100658.09;108103;1284;22060;-66
2023/11/13 05:58:04;;;;;;;3.00;2.00;;;;;;;10.65;66.66;100654.33;108257;1287;24340;-67
2023/11/13 06:00:31;;;;;;;2.90;1.80;;;;;;;10.74;66.70;100662.33;107363;1287;1002206;-66
2023/11/13 06:02:56;;;;;;;3.10;1.80;;;;;;;10.85;66.66;100664.52;108125;1287;21990;-67
2023/11/13 06:05:22;;;;;;;2.90;1.80;;;;;;;10.94;66.49;100665.67;108184;1287;23644;-66
2023/11/13 06:07:48;;;;;;;6.70;2.70;;;;;;;11.00;66.41;100665.09;108128;1287;21989;-67
2023/11/13 06:10:16;;;;;;;4.40;2.10;;;;;;;11.06;66.43;100666.95;107989;1287;21965;-65
2023/11/13 06:12:43;;;;;;;4.00;2.20;;;;;;;11.10;66.32;100668.13;108136;1287;21991;-67
2023/11/13 06:15:13;;;;;;;4.40;2.30;;;;;;;11.14;66.16;100674.08;108108;1278;21989;-65
2023/11/13 06:17:39;;;;;;;4.40;2.30;;;;;;;11.20;66.30;100676.48;108152;1287;21996;-65
2023/11/13 06:20:06;;;;;;;3.90;1.90;;;;;;;11.28;66.56;100678.15;108152;1287;21983;-65
2023/11/13 06:22:31;;;;;;;3.50;2.20;;;;;;;11.37;66.78;100678.76;108121;1283;22076;-66
2023/11/13 06:24:57;;;;;;;5.30;2.00;;;;;;;11.47;66.94;100679.70;108138;1275;21991;-66
2023/11/13 06:27:23;;;;;;;5.20;2.50;;;;;;;11.56;66.97;100678.54;108115;1281;21997;-67
2023/11/13 06:29:50;;;;;;;5.40;2.50;;;;;;;11.65;66.93;100679.86;108124;1280;21993;-67
2023/11/13 06:32:17;;;;;;;4.00;2.20;;;;;;;11.73;66.84;100680.45;108150;1283;23656;-67
2023/11/13 06:34:42;;;;;;;6.30;2.90;;;;;;;11.82;66.91;100677.35;108147;1287;21995;-67
2023/11/13 06:37:08;;;;;;;4.90;2.20;;;;;;;11.91;66.75;100681.99;108146;1282;21994;-65
2023/11/13 06:39:33;;;;;;;7.00;2.50;;;;;;;11.97;66.56;100681.55;108126;1283;21987;-63
2023/11/13 06:41:59;;;;;;;10.30;3.60;;;;;;;12.07;67.04;100687.09;108117;1286;21999;-63
2023/11/13 06:44:24;;;;;;;45.10;5.00;;;;;;;12.19;67.41;100689.91;108121;1275;21987;-62
2023/11/13 06:46:50;;;;;;;93.70;10.00;;;;;;;12.30;67.22;100693.46;108113;1276;21995;-63
2023/11/13 06:49:18;;;;;;;27.50;4.20;;;;;;;12.40;67.06;100688.73;108128;1275;21987;-63
2023/11/13 06:51:45;;;;;;;42.50;6.10;;;;;;;12.49;66.91;100690.19;108170;1281;21989;-63
2023/11/13 06:54:10;;;;;;;45.10;5.00;;;;;;;12.55;66.66;100694.33;107371;1287;1002098;-63
2023/11/13 06:56:37;;;;;;;87.90;8.30;;;;;;;12.58;66.09;100690.75;108109;1287;22005;-63
2023/11/13 06:59:02;;;;;;;197.00;12.10;;;;;;;12.61;66.43;100684.89;108144;1283;22439;-63
2023/11/13 07:01:28;;;;;;;55.90;6.30;;;;;;;12.67;66.51;100677.04;108143;1287;21987;-63
2023/11/13 07:03:54;;;;;;;651.90;50.30;;;;;;;12.74;66.33;100674.83;108144;1284;21997;-63
2023/11/13 07:06:19;;;;;;;1289.70;101.00;;;;;;;12.80;66.37;100677.17;108162;1287;21992;-63
2023/11/13 07:08:45;;;;;;;1123.60;90.30;;;;;;;12.87;66.14;100676.20;108170;1287;21996;-63
2023/11/13 07:11:11;;;;;;;1993.10;160.20;;;;;;;12.90;66.24;100674.38;108135;1287;21995;-60
2023/11/13 07:13:39;;;;;;;1851.80;148.60;;;;;;;12.97;66.58;100676.39;108111;1281;21985;-60
2023/11/13 07:16:10;;;;;;;160.30;13.30;;;;;;;13.05;66.64;100682.94;108182;1284;23062;-66
2023/11/13 07:18:36;;;;;;;17.10;4.30;;;;;;;13.11;66.47;100687.76;107933;1286;21996;-65
2023/11/13 07:21:02;;;;;;;30.60;4.90;;;;;;;13.15;66.15;100693.15;108073;1288;21991;-62
2023/11/13 07:23:29;;;;;;;51.90;6.30;;;;;;;13.19;66.34;100692.73;108101;1286;23789;-65
2023/11/13 07:25:57;;;;;;;17.50;3.70;;;;;;;13.22;66.27;100695.32;108097;1283;21989;-65
2023/11/13 07:28:23;;;;;;;25.40;4.80;;;;;;;13.26;66.29;100697.89;108130;1287;21987;-66
2023/11/13 07:30:52;;;;;;;28.60;4.80;;;;;;;13.28;66.40;100696.97;108137;1287;22000;-63
2023/11/13 07:33:18;;;;;;;9.90;3.50;;;;;;;13.30;66.19;100693.06;107958;1287;21989;-63
2023/11/13 07:35:43;;;;;;;9.00;3.50;;;;;;;13.28;65.61;100692.38;107394;1287;1002368;-62
2023/11/13 07:38:09;;;;;;;9.50;3.50;;;;;;;13.27;65.46;100692.05;108115;1287;21981;-62
2023/11/13 07:40:38;;;;;;;22.70;3.80;;;;;;;13.31;65.99;100684.58;108116;1278;22043;-62
2023/11/13 07:43:04;;;;;;;7.70;4.00;;;;;;;13.35;66.00;100681.86;108146;1287;21989;-62
2023/11/13 07:45:30;;;;;;;6.60;3.70;;;;;;;13.42;65.97;100679.81;108131;1287;22024;-67
2023/11/13 07:47:56;;;;;;;6.30;4.00;;;;;;;13.52;66.02;100683.34;108126;1286;21985;-67
2023/11/13 07:50:23;;;;;;;7.70;4.00;;;;;;;13.63;65.82;100679.42;105981;1284;1002760;-62
2023/11/13 07:52:50;;;;;;;7.30;4.70;;;;;;;13.75;65.52;100680.95;108085;1287;21995;-62
2023/11/13 07:55:18;;;;;;;7.40;4.30;;;;;;;13.84;64.34;100678.81;108112;1287;21981;-62
2023/11/13 07:57:43;;;;;;;8.00;5.30;;;;;;;13.91;64.18;100673.02;108132;1287;21986;-62
2023/11/13 08:00:10;;;;;;;6.40;4.40;;;;;;;14.00;64.03;100670.19;108124;1287;22452;-67
2023/11/13 08:02:42;;;;;;;7.00;4.20;;;;;;;14.12;64.69;100672.55;108010;1284;21982;-62
2023/11/13 08:05:17;;;;;;;6.50;4.60;;;;;;;14.25;63.55;100672.80;108152;1287;21982;-61
2023/11/13 08:07:43;;;;;;;7.00;3.90;;;;;;;14.33;63.24;100672.98;108102;1287;21954;-67
2023/11/13 08:10:13;;;;;;;7.00;4.40;;;;;;;14.44;63.62;100672.54;108139;1275;22077;-62
2023/11/13 08:12:49;;;;;;;7.10;4.60;;;;;;;14.56;63.29;100670.30;108167;1286;21987;-61
2023/11/13 08:15:15;;;;;;;7.30;4.30;;;;;;;14.68;63.15;100664.92;108139;1284;21992;-68
2023/11/13 08:17:44;;;;;;;7.80;4.20;;;;;;;14.82;62.94;100659.45;108111;1277;21986;-62
2023/11/13 08:20:13;;;;;;;6.70;4.30;;;;;;;14.96;62.89;100654.33;108093;1287;21987;-63
2023/11/13 08:22:39;;;;;;;6.30;4.00;;;;;;;15.10;62.54;100652.00;108175;1286;21991;-61
2023/11/13 08:25:07;;;;;;;7.00;4.00;;;;;;;15.25;62.56;100654.11;108158;1287;22005;-61
2023/11/13 08:27:33;;;;;;;7.60;4.00;;;;;;;15.38;62.90;100651.45;108168;1287;21981;-68
2023/11/13 08:30:01;;;;;;;5.90;3.80;;;;;;;15.52;62.99;100648.21;108118;1287;21998;-69
2023/11/13 08:32:27;;;;;;;8.10;3.90;;;;;;;15.65;61.93;100646.09;108112;1287;22494;-62
2023/11/13 08:34:54;;;;;;;5.80;3.90;;;;;;;15.75;61.32;100648.61;108133;1287;21987;-68
2023/11/13 08:37:22;;;;;;;5.70;3.70;;;;;;;15.85;62.11;100653.48;108131;1283;21986;-62
2023/11/13 08:39:48;;;;;;;4.60;3.00;;;;;;;15.98;61.98;100655.59;108119;1287;22038;-68
2023/11/13 08:42:13;;;;;;;7.50;3.50;;;;;;;16.12;61.65;100653.56;108099;1287;22458;-62
2023/11/13 08:44:40;;;;;;;4.50;2.70;;;;;;;16.23;60.45;100650.58;108096;1287;22002;-62
2023/11/13 08:47:06;;;;;;;4.90;2.90;;;;;;;16.32;60.58;100646.38;108171;1284;21987;-68
2023/11/13 08:49:33;;;;;;;5.10;2.90;;;;;;;16.46;60.13;100640.81;108116;1287;21987;-61
2023/11/13 08:52:00;;;;;;;6.00;3.10;;;;;;;16.56;59.49;100639.25;108126;1287;22003;-67
2023/11/13 08:54:28;;;;;;;7.40;3.10;;;;;;;16.65;60.38;100641.58;108775;1277;21986;-61
2023/11/13 08:56:54;;;;;;;5.40;3.30;;;;;;;16.84;61.11;100639.91;108130;1287;21975;-61
2023/11/13 08:59:22;;;;;;;5.70;3.10;;;;;;;17.09;62.12;100642.96;108221;1277;23618;-68
2023/11/13 09:01:48;;;;;;;4.90;3.40;;;;;;;17.33;60.95;100640.01;108267;1284;21979;-67
2023/11/13 09:04:14;;;;;;;4.70;3.00;;;;;;;17.54;61.19;100636.77;108250;1284;21975;-67
2023/11/13 09:06:40;;;;;;;5.70;2.90;;;;;;;17.79;60.39;100636.37;108230;1284;21986;-61
2023/11/13 09:09:12;;;;;;;4.00;2.40;;;;;;;17.92;58.51;100638.33;107976;1284;335132;-67
2023/11/13 09:11:40;;;;;;;3.70;2.30;;;;;;;18.04;58.10;100638.47;108317;1284;21979;-61
2023/11/13 09:14:09;;;;;;;4.90;2.50;;;;;;;18.17;57.53;100635.64;108281;1281;21978;-67
2023/11/13 09:16:38;;;;;;;4.50;2.70;;;;;;;18.27;58.45;100631.65;108233;1284;21980;-61
2023/11/13 09:19:05;;;;;;;5.60;3.50;;;;;;;18.44;58.14;100629.73;108246;1284;21980;-61
2023/11/13 09:21:30;;;;;;;5.60;3.10;;;;;;;18.60;58.26;100628.55;108248;1277;21980;-67
2023/11/13 09:23:56;;;;;;;5.70;2.80;;;;;;;18.86;59.92;100629.07;108199;1284;21991;-68
2023/11/13 09:26:22;;;;;;;6.30;3.10;;;;;;;19.17;60.20;100625.77;108243;1284;22020;-61
2023/11/13 09:28:47;;;;;;;5.80;2.50;;;;;;;19.44;59.16;100623.34;108217;1284;21971;-68
2023/11/13 09:31:13;;;;;;;4.60;2.40;;;;;;;19.56;57.07;100619.42;108159;1278;21981;-68
2023/11/13 09:33:39;;;;;;;7.10;2.30;;;;;;;19.54;55.02;100617.91;108178;1284;22444;-68
2023/11/13 09:36:07;;;;;;;7.20;2.10;;;;;;;19.47;54.04;100618.77;108223;1284;23068;-61
2023/11/13 09:38:32;;;;;;;3.70;2.00;;;;;;;19.30;53.18;100614.55;108245;1281;21987;-68
2023/11/13 09:41:03;;;;;;;2.70;1.70;;;;;;;19.11;52.18;100611.28;108205;1284;21989;-68
2023/11/13 09:43:32;;;;;;;2.80;1.70;;;;;;;18.94;51.88;100610.07;108271;1284;21950;-69
2023/11/13 09:45:58;;;;;;;4.30;2.30;;;;;;;18.87;51.91;100604.31;109156;1284;23034;-61
2023/11/13 09:48:30;;;;;;;4.80;2.20;;;;;;;18.83;52.10;100604.13;108158;1284;22202;-69
2023/11/13 09:51:00;;;;;;;3.30;1.90;;;;;;;18.74;51.62;100601.29;108102;1284;21991;-64
2023/11/13 09:53:29;;;;;;;4.80;2.30;;;;;;;18.68;52.03;100600.84;108188;1284;21986;-61
2023/11/13 09:55:56;;;;;;;3.40;1.80;;;;;;;18.71;52.44;100599.83;108256;1284;22122;-67
2023/11/13 09:58:21;;;;;;;4.10;2.30;;;;;;;18.85;53.00;100597.48;108151;1284;21980;-68
2023/11/13 10:00:48;;;;;;;3.30;2.30;;;;;;;19.00;50.81;100589.17;108250;1284;21992;-61
2023/11/13 10:03:15;;;;;;;3.70;2.40;;;;;;;19.08;51.12;100584.94;108416;1284;22013;-61
2023/11/13 10:05:42;;;;;;;4.40;2.50;;;;;;;19.14;51.82;100577.20;108499;1284;23028;-62
2023/11/13 10:08:08;;;;;;;4.00;2.60;;;;;;;19.17;51.09;100577.61;108962;1284;21974;-69
2023/11/13 10:10:34;;;;;;;4.70;2.90;;;;;;;19.13;51.25;100578.15;108362;1284;22163;-60
2023/11/13 10:13:01;;;;;;;7.30;2.20;;;;;;;19.12;51.12;100576.40;108234;1284;22159;-71
2023/11/13 10:15:28;;;;;;;4.40;2.60;;;;;;;19.19;51.38;100570.05;108212;1284;21985;-60
2023/11/13 10:17:56;;;;;;;4.10;2.70;;;;;;;19.27;51.16;100562.74;108350;1284;23750;-60
2023/11/13 10:20:22;;;;;;;5.00;2.50;;;;;;;19.33;51.42;100555.88;108432;1280;23709;-69
2023/11/13 10:23:06;;;;;;;3.00;2.20;;;;;;;19.49;51.70;100545.34;108384;1284;21996;-69
2023/11/13 10:25:56;;;;;;;3.30;2.00;;;;;;;19.82;53.16;100539.36;108374;1280;21980;-60
2023/11/13 10:28:35;;;;;;;4.60;2.40;;;;;;;20.17;52.92;100532.84;107627;1284;1002539;-69
2023/11/13 10:31:01;;;;;;;3.80;1.90;;;;;;;20.42;51.94;100527.53;108424;1284;22156;-69
2023/11/13 10:33:28;;;;;;;4.10;2.20;;;;;;;20.58;52.17;100523.46;108303;1274;21978;-61
2023/11/13 10:35:55;;;;;;;3.90;2.50;;;;;;;20.74;51.65;100513.43;108351;1280;21988;-60
2023/11/13 10:38:21;;;;;;;5.10;2.40;;;;;;;20.80;50.76;100508.64;108375;1274;21993;-69
2023/11/13 10:40:59;;;;;;;3.40;2.00;;;;;;;20.75;50.10;100506.59;108299;1284;21982;-69
2023/11/13 10:43:29;;;;;;;3.20;2.00;;;;;;;20.71;49.64;100504.27;108451;1284;21987;-69
2023/11/13 10:45:55;;;;;;;3.40;2.40;;;;;;;20.72;49.07;100504.05;108423;1284;22043;-70
2023/11/13 10:48:34;;;;;;;4.30;2.10;;;;;;;20.76;49.47;100500.48;108361;1277;21983;-61
2023/11/13 10:51:04;;;;;;;4.70;2.70;;;;;;;20.85;50.09;100499.27;108368;1284;22149;-68
2023/11/13 10:53:35;;;;;;;3.60;2.50;;;;;;;21.01;50.81;100499.86;108119;1284;21997;-61
2023/11/13 10:56:01;;;;;;;4.60;2.90;;;;;;;21.08;50.10;100496.98;106666;1284;1002525;-69
2023/11/13 10:58:27;;;;;;;4.70;2.70;;;;;;;21.05;49.66;100498.02;108233;1284;21990;-69
2023/11/13 11:00:55;;;;;;;5.20;2.80;;;;;;;21.01;49.13;100496.50;108114;1284;22267;-69
2023/11/13 11:03:21;;;;;;;4.40;2.90;;;;;;;20.90;48.86;100490.85;108236;1284;22018;-59
2023/11/13 11:05:46;;;;;;;4.50;2.70;;;;;;;20.84;49.51;100486.91;108092;1284;22027;-69
2023/11/13 11:08:12;;;;;;;5.40;3.20;;;;;;;20.83;49.75;100486.77;108222;1284;21986;-70
2023/11/13 11:10:38;;;;;;;5.30;3.00;;;;;;;20.83;49.39;100483.36;108118;1284;21993;-60
2023/11/13 11:13:09;;;;;;;5.10;3.30;;;;;;;20.74;48.59;100484.87;108127;1284;24312;-60
2023/11/13 11:15:50;;;;;;;4.50;2.90;;;;;;;20.58;48.33;100481.98;108177;1281;21978;-60